Hlavní strana
METAR-TAF:

METAR-TAF

Letiště :

Estevan, Saskatchewan, Kanada

zeměpisná šířka: 49-13N, zeměpisná délka: 102-58W, výška: 572 m

Aktuální stav počasí

Zpráva byla vytvořena před 24 minutami, v 14:00 UTC
Bezvětří
Teplota 10°C
Vlhkost vzduchu 76%
Tlak 1025 hPa
Viditelnost: 16.1 km
Skoro jasno ve výšce 7000 ft
Oblačno až skoro zataženo ve výšce 12000 ft
Zataženo ve výšce 24000 ft

METAR: CYEN 201400Z 00000KT 10SM FEW070 BKN120 OVC240 10/06 A3028 RMK AC1AC6CI2 AC TR HZ SLP265

Čas: 08:24 (14:24 UTC)

Předpověď počasí

Zpráva byla vytvořena před 2 hodinami a 43 minutami, v 11:41 UTC
Předpověď platná od 20 v 12 UTC do 20 v 24 UTC
Severoseverozápadní vítr 6 kt
Viditelnost: 10 km
Skoro jasno ve výšce 8000 ft
Polojasno ve výšce 20000 ft

TAF: CYEN 201141Z 2012/2024 34006KT P6SM FEW080 SCT200 RMK NXT FCST BY 201800Z

Stav a předpovědi počasí z více než 4 000 letišť (zprávy METAR a TAF).

Červené a žluté tečky na mapě představují dostupné meteorologické stanice.

Když kurzor umístíte na tečku, zobrazí se název stanice.

Pak kliknutím zobrazíte stav a předpověď počasí.

Chcete-li změnit mapu, kliknutím na zelené tlačítko se znaménkem +mapu přiblížíte, kliknutím na zelené tlačítko se znaménkem – mapu oddálíte a kliknutím na zelené šipky přejdete na sousední mapy.


METAR-TAF: